Time;durP1;ratioP1;P1;durP2;ratioP2;P2;SDS_P1;SDS_P2;PMS_P1;PMS_P2;Temp;Humidity;BMP_temperature;BMP_pressure;BME280_temperature;BME280_humidity;BME280_pressure;Samples;Min_cycle;Max_cycle;Signal;HPM_P1;HPM_P2
2022/09/05 00:01:14;;;;;;;24.30;15.52;;;17.30;99.90;;;;;;5063064;28;20037;-82
2022/09/05 00:03:50;;;;;;;19.95;15.15;;;17.30;99.90;;;;;;5063058;28;20085;-80
2022/09/05 00:06:16;;;;;;;21.83;15.90;;;17.20;99.90;;;;;;5074120;28;20052;-81
2022/09/05 00:09:06;;;;;;;20.85;15.85;;;17.20;99.90;;;;;;5077716;28;20021;-81
2022/09/05 00:11:44;;;;;;;23.65;16.73;;;17.20;99.90;;;;;;5077683;28;20037;-79
2022/09/05 00:14:31;;;;;;;19.50;17.20;;;17.10;99.90;;;;;;5077767;28;20047;-81
2022/09/05 00:17:23;;;;;;;22.95;17.25;;;17.10;99.90;;;;;;5078097;28;20100;-80
2022/09/05 00:20:21;;;;;;;23.02;16.92;;;17.10;99.90;;;;;;5060421;28;20025;-80
2022/09/05 00:23:14;;;;;;;24.27;18.00;;;17.10;99.90;;;;;;5050074;28;20053;-83
2022/09/05 00:26:17;;;;;;;23.00;17.88;;;17.00;99.90;;;;;;5061982;28;20052;-84
2022/09/05 00:28:55;;;;;;;22.77;18.63;;;17.00;99.90;;;;;;5060026;28;20051;-80
2022/09/05 00:31:28;;;;;;;23.75;18.60;;;16.90;99.90;;;;;;5062332;28;20416;-82
2022/09/05 00:34:10;;;;;;;22.75;18.80;;;16.90;99.90;;;;;;5044713;28;20049;-82
2022/09/05 00:36:48;;;;;;;23.48;19.00;;;16.90;99.90;;;;;;5061680;28;20028;-81
2022/09/05 00:39:19;;;;;;;23.77;19.20;;;16.90;99.90;;;;;;5046178;28;20052;-82
2022/09/05 00:41:53;;;;;;;28.77;19.98;;;16.90;99.90;;;;;;5065073;28;20029;-81
2022/09/05 00:44:22;;;;;;;27.63;20.30;;;16.90;99.90;;;;;;5068469;28;20048;-80
2022/09/05 00:47:12;;;;;;;24.95;18.63;;;16.90;99.90;;;;;;5035073;28;20115;-82
2022/09/05 00:49:47;;;;;;;25.13;20.05;;;16.80;99.90;;;;;;5059837;28;20028;-81
2022/09/05 00:52:19;;;;;;;24.98;20.13;;;16.80;99.90;;;;;;5060464;28;20029;-82
2022/09/05 00:54:51;;;;;;;28.73;21.08;;;16.80;99.90;;;;;;5075788;28;20062;-80
2022/09/05 00:57:45;;;;;;;28.50;21.55;;;16.80;99.90;;;;;;5069683;28;20024;-82
2022/09/05 01:00:18;;;;;;;29.45;22.05;;;16.70;99.90;;;;;;5061674;28;20032;-82
2022/09/05 01:03:09;;;;;;;27.35;21.45;;;16.70;99.90;;;;;;5071667;28;20029;-82
2022/09/05 01:06:18;;;;;;;30.30;22.02;;;16.70;99.90;;;;;;5061062;28;20037;-80
2022/09/05 01:08:51;;;;;;;26.35;21.08;;;16.70;99.90;;;;;;5027264;28;20128;-83
2022/09/05 01:11:46;;;;;;;29.15;20.40;;;16.60;99.90;;;;;;5062557;28;20033;-83
2022/09/05 01:14:12;;;;;;;27.17;20.10;;;16.60;99.90;;;;;;5063363;28;20033;-82
2022/09/05 01:17:05;;;;;;;24.30;20.10;;;16.60;99.90;;;;;;5062232;28;20080;-82
2022/09/05 01:19:58;;;;;;;26.73;20.08;;;16.60;99.90;;;;;;5067478;28;20025;-80
2022/09/05 01:22:51;;;;;;;28.35;19.35;;;16.50;99.90;;;;;;5063878;28;20029;-83
2022/09/05 01:25:26;;;;;;;24.10;19.27;;;16.50;99.90;;;;;;5058376;28;20032;-82
2022/09/05 01:28:04;;;;;;;22.27;18.63;;;16.50;99.90;;;;;;5058000;28;20393;-81
2022/09/05 01:30:40;;;;;;;27.52;17.88;;;16.40;99.90;;;;;;5058624;28;20378;-83
2022/09/05 01:33:28;;;;;;;21.83;16.92;;;16.40;99.90;;;;;;5058193;28;20033;-82
2022/09/05 01:36:03;;;;;;;20.05;17.30;;;16.40;99.90;;;;;;5058181;28;20083;-82
2022/09/05 01:39:23;;;;;;;22.33;18.48;;;16.40;99.90;;;;;;5057644;28;20021;-83
2022/09/05 01:42:11;;;;;;;24.25;17.58;;;16.40;99.90;;;;;;4996614;28;20056;-81
2022/09/05 01:44:40;;;;;;;21.13;17.17;;;16.30;99.90;;;;;;5063989;28;20041;-82
2022/09/05 01:47:28;;;;;;;20.05;15.95;;;16.30;99.90;;;;;;5029969;28;20017;-81
2022/09/05 01:49:56;;;;;;;21.52;16.50;;;16.30;99.90;;;;;;5059285;28;20099;-82
2022/09/05 01:52:43;;;;;;;23.73;16.75;;;16.30;99.90;;;;;;5044947;28;20108;-82
2022/09/05 01:55:38;;;;;;;19.85;16.65;;;16.30;99.90;;;;;;5067524;28;20029;-82
2022/09/05 01:58:18;;;;;;;20.92;17.45;;;16.30;99.90;;;;;;5062383;28;20727;-81
2022/09/05 02:00:47;;;;;;;24.58;17.38;;;16.30;99.90;;;;;;5059401;28;20477;-81
2022/09/05 02:03:25;;;;;;;25.00;17.58;;;16.30;99.90;;;;;;5024406;28;20025;-81
2022/09/05 02:06:09;;;;;;;23.25;17.00;;;16.20;99.90;;;;;;5044105;28;20484;-82
2022/09/05 02:09:02;;;;;;;23.25;17.98;;;16.20;99.90;;;;;;5067654;28;20017;-80
2022/09/05 02:12:12;;;;;;;24.23;18.23;;;16.20;99.90;;;;;;5069729;28;20477;-83
2022/09/05 02:14:43;;;;;;;22.58;17.67;;;16.20;99.90;;;;;;5040275;28;20045;-82
2022/09/05 02:17:25;;;;;;;22.80;17.23;;;16.20;99.90;;;;;;5075036;28;20080;-81
2022/09/05 02:20:20;;;;;;;25.70;18.08;;;16.20;99.90;;;;;;5066640;28;20029;-82
2022/09/05 02:23:06;;;;;;;;;;;16.20;99.90;;;;;;5060826;28;20032;-82
2022/09/05 02:26:11;;;;;;;28.67;18.57;;;16.10;99.90;;;;;;5061465;28;19909;-80
2022/09/05 02:28:48;;;;;;;30.88;20.40;;;16.10;99.90;;;;;;5062523;28;20407;-81
2022/09/05 02:31:25;;;;;;;23.27;19.30;;;16.10;99.90;;;;;;5062018;28;20555;-81
2022/09/05 02:47:02;;;;;;;;;;;;;;;;;;;;;
2022/09/05 02:50:33;;;;;;;28.90;22.48;;;16.00;99.90;;;;;;5027973;28;20025;-83
2022/09/05 03:44:38;;;;;;;;;;;;;;;;;;;;;
2022/09/05 03:55:57;;;;;;;35.70;22.55;;;15.70;99.90;;;;;;4880016;29;20074;-85
2022/09/05 04:07:44;;;;;;;30.83;21.02;;;15.70;99.90;;;;;;4823524;29;20047;-85
2022/09/05 04:30:24;;;;;;;29.50;21.23;;;15.50;99.90;;;;;;4954632;28;20144;-85
2022/09/05 05:06:03;;;;;;;27.08;20.52;;;15.80;99.90;;;;;;5066853;28;20143;-85
2022/09/05 05:13:57;;;;;;;;;;;;;;;;;;;;;
2022/09/05 05:17:21;;;;;;;26.83;18.27;;;16.00;99.90;;;;;;4984451;28;20038;-82
2022/09/05 05:33:04;;;;;;;;;;;;;;;;;;;;;
2022/09/05 05:49:14;;;;;;;31.65;20.70;;;16.40;99.90;;;;;;4876620;29;20112;-84
2022/09/05 05:52:45;;;;;;;26.77;20.67;;;16.50;99.90;;;;;;4963763;28;20043;-84
2022/09/05 05:56:01;;;;;;;;;;;;;;;;;;;;;
2022/09/05 05:59:42;;;;;;;31.48;20.20;;;16.60;99.90;;;;;;4982589;28;19933;-84
2022/09/05 06:03:36;;;;;;;30.42;18.92;;;16.70;99.90;;;;;;4952214;29;20513;-84
2022/09/05 06:07:06;;;;;;;;;;;;;;;;;;;;;
2022/09/05 06:14:14;;;;;;;31.88;19.13;;;17.10;99.90;;;;;;4950952;29;20091;-82
2022/09/05 06:17:30;;;;;;;27.73;18.10;;;17.20;99.90;;;;;;4959269;28;20042;-84
2022/09/05 06:21:17;;;;;;;26.15;17.65;;;17.30;99.90;;;;;;4985741;28;20081;-82
2022/09/05 06:28:02;;;;;;;25.13;16.92;;;17.40;99.90;;;;;;5076786;28;20128;-86
2022/09/05 06:31:51;;;;;;;;;;;;;;;;;;;;;
2022/09/05 06:35:21;;;;;;;29.70;18.17;;;17.70;99.90;;;;;;5093774;22;20052;-85
2022/09/05 06:47:40;;;;;;;21.45;14.98;;;18.10;99.90;;;;;;4962673;28;20121;-85
2022/09/05 06:51:13;;;;;;;22.00;14.70;;;18.30;99.90;;;;;;4934687;29;20040;-85
2022/09/05 06:58:50;;;;;;;;;;;;;;;;;;;;;
2022/09/05 07:02:39;;;;;;;19.35;12.90;;;18.80;99.90;;;;;;4972512;28;20037;-88
2022/09/05 07:06:29;;;;;;;21.40;13.70;;;18.90;99.90;;;;;;4988230;28;20037;-86
2022/09/05 07:09:56;;;;;;;28.85;14.00;;;19.00;99.90;;;;;;5034418;28;20087;-86
2022/09/05 07:12:49;;;;;;;17.92;13.70;;;19.20;99.90;;;;;;4933373;29;20043;-86
2022/09/05 07:16:00;;;;;;;17.23;13.30;;;19.10;99.90;;;;;;5031757;28;20033;-86
2022/09/05 07:19:09;;;;;;;17.00;13.70;;;19.20;99.90;;;;;;5010513;28;20034;-86
2022/09/05 07:22:04;;;;;;;19.50;13.10;;;19.30;99.90;;;;;;5014125;28;20056;-85
2022/09/05 07:25:18;;;;;;;18.77;13.73;;;19.30;99.90;;;;;;5030978;28;20037;-84
2022/09/05 07:28:34;;;;;;;;;;;;;;;;;;;;;
2022/09/05 07:32:06;;;;;;;20.52;14.30;;;19.60;99.90;;;;;;5035148;28;20033;-85
2022/09/05 07:35:47;;;;;;;21.35;14.45;;;19.70;99.90;;;;;;4990323;28;20117;-87
2022/09/05 07:51:56;;;;;;;;;;;;;;;;;;;;;
2022/09/05 07:58:06;;;;;;;22.38;13.35;;;20.30;99.90;;;;;;5011813;28;20073;-84
2022/09/05 08:01:30;;;;;;;18.40;13.05;;;20.30;99.90;;;;;;4994136;28;20062;-85
2022/09/05 08:05:24;;;;;;;17.60;13.07;;;20.40;99.90;;;;;;5000988;28;20044;-85
2022/09/05 08:12:27;;;;;;;;;;;;;;;;;;;;;
2022/09/05 08:16:33;;;;;;;23.27;13.45;;;21.00;99.90;;;;;;4954480;29;20047;-85
2022/09/05 08:23:27;;;;;;;11.73;10.32;;;21.00;99.90;;;;;;4958638;28;20033;-84
2022/09/05 08:27:05;;;;;;;16.13;11.45;;;21.10;99.90;;;;;;4985541;28;20022;-86
2022/09/05 08:30:11;;;;;;;;;;;;;;;;;;;;;
2022/09/05 08:33:42;;;;;;;11.13;9.40;;;21.60;99.90;;;;;;5011063;28;20038;-85
2022/09/05 08:36:23;;;;;;;24.00;9.38;;;21.70;99.90;;;;;;5065805;22;20079;-83
2022/09/05 08:39:01;;;;;;;12.00;8.57;;;21.70;99.90;;;;;;5045115;28;20041;-86
2022/09/05 08:42:03;;;;;;;13.10;8.85;;;21.70;99.90;;;;;;5041749;28;20021;-85
2022/09/05 08:44:59;;;;;;;12.50;7.90;;;21.70;99.90;;;;;;5036200;28;20610;-84
2022/09/05 08:47:28;;;;;;;;;;;21.80;99.90;;;;;;5036729;28;20367;-84
2022/09/05 08:50:18;;;;;;;14.43;9.13;;;21.90;99.90;;;;;;5033000;28;19905;-84
2022/09/05 08:53:09;;;;;;;11.73;7.82;;;21.90;99.90;;;;;;5031944;28;20049;-83
2022/09/05 08:55:49;;;;;;;19.65;8.65;;;22.00;99.90;;;;;;4993367;28;20038;-82
2022/09/05 08:58:52;;;;;;;11.57;8.25;;;22.00;99.90;;;;;;5021900;28;20033;-83
2022/09/05 09:01:33;;;;;;;14.00;8.80;;;22.10;99.90;;;;;;5022284;28;20036;-84
2022/09/05 09:04:30;;;;;;;13.52;7.57;;;22.30;99.90;;;;;;5022382;28;20033;-83
2022/09/05 09:07:35;;;;;;;14.38;8.50;;;22.40;99.90;;;;;;5021259;28;20144;-84
2022/09/05 09:10:26;;;;;;;9.90;7.68;;;22.90;99.90;;;;;;4991817;28;20034;-83
2022/09/05 09:13:27;;;;;;;10.57;7.07;;;23.20;99.90;;;;;;5022513;28;20034;-83
2022/09/05 09:16:03;;;;;;;8.90;6.82;;;23.40;99.90;;;;;;5027332;28;20105;-83
2022/09/05 09:18:48;;;;;;;10.82;6.55;;;23.90;99.90;;;;;;5027474;28;20236;-83
2022/09/05 09:21:39;;;;;;;9.77;7.18;;;24.50;99.90;;;;;;5026636;28;20060;-84
2022/09/05 09:24:27;;;;;;;8.20;6.35;;;24.40;99.90;;;;;;5025202;28;20033;-84
2022/09/05 09:27:05;;;;;;;8.55;6.07;;;24.80;99.90;;;;;;5027417;28;20029;-84
2022/09/05 09:29:36;;;;;;;13.80;6.22;;;24.90;99.90;;;;;;5032210;28;20403;-83
2022/09/05 09:32:12;;;;;;;11.27;5.55;;;25.30;99.90;;;;;;5028822;28;20030;-84
2022/09/05 09:34:59;;;;;;;12.77;5.22;;;25.50;99.90;;;;;;5028944;28;20029;-83
2022/09/05 09:37:45;;;;;;;6.95;5.05;;;25.70;99.90;;;;;;5026740;28;20081;-84
2022/09/05 09:40:35;;;;;;;8.18;5.22;;;26.10;99.90;;;;;;5027032;28;20474;-84
2022/09/05 09:43:16;;;;;;;9.57;6.35;;;26.70;99.90;;;;;;5027308;28;20037;-83
2022/09/05 09:46:14;;;;;;;17.17;5.30;;;27.20;99.90;;;;;;5027764;28;20049;-82
2022/09/05 09:48:49;;;;;;;9.63;4.75;;;27.40;99.90;;;;;;5027342;28;20033;-83
2022/09/05 09:51:56;;;;;;;7.40;5.10;;;27.60;99.70;;;;;;5033019;28;20042;-83
2022/09/05 09:54:45;;;;;;;7.28;4.50;;;28.30;99.00;;;;;;5036271;28;20106;-84
2022/09/05 09:57:29;;;;;;;6.95;5.32;;;29.20;97.60;;;;;;5029019;28;20036;-84
2022/09/05 10:00:18;;;;;;;9.20;5.20;;;30.10;95.80;;;;;;5027797;28;20037;-84
2022/09/05 10:03:34;;;;;;;5.55;4.43;;;31.10;93.90;;;;;;5032957;28;20397;-86
2022/09/05 10:06:36;;;;;;;10.32;4.15;;;32.70;91.70;;;;;;5034829;28;20034;-84
2022/09/05 10:09:20;;;;;;;9.32;4.32;;;34.70;87.00;;;;;;4972721;29;20078;-85
2022/09/05 10:11:48;;;;;;;;;;;36.00;81.10;;;;;;5034352;28;20030;-84
2022/09/05 10:14:33;;;;;;;4.85;3.45;;;35.90;78.70;;;;;;5038805;28;20004;-84
2022/09/05 10:16:59;;;;;;;5.20;3.58;;;36.20;76.90;;;;;;5037660;28;20089;-83
2022/09/05 10:19:56;;;;;;;5.30;3.35;;;36.90;74.80;;;;;;5038145;28;20026;-84
2022/09/05 10:22:37;;;;;;;8.90;2.88;;;37.20;72.50;;;;;;5029186;28;20629;-83
2022/09/05 10:25:30;;;;;;;6.90;3.08;;;36.30;72.20;;;;;;5026722;28;20038;-85
2022/09/05 10:28:38;;;;;;;5.88;4.00;;;35.90;72.30;;;;;;5026501;28;20040;-84
2022/09/05 10:31:12;;;;;;;3.92;3.20;;;35.20;73.20;;;;;;5028214;28;20121;-83
2022/09/05 10:33:55;;;;;;;3.72;3.33;;;34.80;73.50;;;;;;5026066;28;20041;-84
2022/09/05 10:36:27;;;;;;;5.35;3.28;;;34.50;73.80;;;;;;4995453;28;20053;-84
2022/09/05 10:39:17;;;;;;;7.40;3.60;;;35.50;73.10;;;;;;5026900;28;20053;-84
2022/09/05 10:41:48;;;;;;;7.38;3.40;;;36.20;70.70;;;;;;5025774;28;20513;-84
2022/09/05 10:44:16;;;;;;;9.15;4.63;;;34.50;71.60;;;;;;5026715;28;20053;-84
2022/09/05 10:46:46;;;;;;;7.25;4.07;;;35.00;72.00;;;;;;5026515;28;20018;-84
2022/09/05 10:49:14;;;;;;;4.95;3.30;;;36.10;70.60;;;;;;5026769;28;20069;-85
2022/09/05 10:51:51;;;;;;;7.68;4.43;;;37.20;69.30;;;;;;5030359;28;20041;-84
2022/09/05 10:54:36;;;;;;;4.50;3.75;;;37.10;68.20;;;;;;5030164;28;20040;-84
2022/09/05 10:57:38;;;;;;;3.05;2.75;;;37.50;67.80;;;;;;5031173;28;20040;-84
2022/09/05 11:00:04;;;;;;;8.63;4.03;;;38.60;66.40;;;;;;5030258;28;20044;-83
2022/09/05 11:02:31;;;;;;;4.20;2.92;;;39.30;64.80;;;;;;5031732;28;20053;-84
2022/09/05 11:05:22;;;;;;;3.10;2.80;;;39.40;64.20;;;;;;5033167;28;20053;-84
2022/09/05 11:08:03;;;;;;;3.88;3.38;;;39.60;63.40;;;;;;5033864;28;20042;-84
2022/09/05 11:10:36;;;;;;;5.88;3.65;;;39.40;62.30;;;;;;5033137;28;20029;-84
2022/09/05 11:13:24;;;;;;;4.50;3.50;;;37.80;63.00;;;;;;5038611;28;20509;-85
2022/09/05 11:15:58;;;;;;;9.80;4.55;;;36.60;65.20;;;;;;5034102;28;20272;-84
2022/09/05 11:18:37;;;;;;;5.57;3.42;;;36.80;64.90;;;;;;5036608;28;20034;-83
2022/09/05 11:21:42;;;;;;;5.00;3.42;;;37.30;64.50;;;;;;5033763;28;20048;-83
2022/09/05 11:24:28;;;;;;;6.18;3.85;;;38.10;63.80;;;;;;5035774;28;20038;-83
2022/09/05 11:27:09;;;;;;;7.45;3.20;;;37.30;63.10;;;;;;5035974;28;20494;-86
2022/09/05 11:29:50;;;;;;;4.38;3.13;;;36.70;64.00;;;;;;5030772;28;20049;-84
2022/09/05 11:32:54;;;;;;;8.02;3.25;;;37.20;64.00;;;;;;5032696;28;20040;-83
2022/09/05 11:35:45;;;;;;;6.95;3.15;;;37.60;63.20;;;;;;5033029;28;20040;-83
2022/09/05 11:38:33;;;;;;;10.00;8.20;;;38.10;62.60;;;;;;5029710;28;20466;-85
2022/09/05 11:41:18;;;;;;;5.05;2.92;;;38.10;62.20;;;;;;5032588;28;20050;-82
2022/09/05 11:44:08;;;;;;;4.35;2.67;;;38.20;62.00;;;;;;5033006;28;20029;-84
2022/09/05 11:47:13;;;;;;;8.05;3.10;;;38.30;61.70;;;;;;5034210;28;20036;-83
2022/09/05 11:50:12;;;;;;;3.20;2.90;;;39.00;61.10;;;;;;5034433;28;20030;-84
2022/09/05 11:53:17;;;;;;;3.67;2.92;;;38.70;61.10;;;;;;5034980;28;20033;-82
2022/09/05 11:55:45;;;;;;;4.38;3.33;;;38.40;61.50;;;;;;5014117;28;20046;-82
2022/09/05 11:58:11;;;;;;;4.53;3.25;;;39.10;61.20;;;;;;5034338;28;20017;-84
2022/09/05 12:00:54;;;;;;;5.25;3.53;;;39.70;59.50;;;;;;5036690;28;20025;-83
2022/09/05 12:03:53;;;;;;;4.20;3.00;;;39.90;58.90;;;;;;5037918;28;20034;-84
2022/09/05 12:06:47;;;;;;;4.78;3.00;;;38.50;60.20;;;;;;5038773;28;20030;-81
2022/09/05 12:09:51;;;;;;;4.20;2.70;;;37.40;61.30;;;;;;5037809;28;20029;-84
2022/09/05 12:12:29;;;;;;;4.57;3.20;;;37.70;61.40;;;;;;5037757;28;20038;-84
2022/09/05 12:15:20;;;;;;;3.88;3.28;;;38.00;61.10;;;;;;5037661;28;20075;-84
2022/09/05 12:17:49;;;;;;;3.45;3.15;;;38.00;60.40;;;;;;5037980;28;20033;-84
2022/09/05 12:20:40;;;;;;;4.47;3.20;;;37.80;61.00;;;;;;5037758;28;20010;-83
2022/09/05 12:23:24;;;;;;;6.63;3.33;;;38.60;60.40;;;;;;5037770;28;20026;-83
2022/09/05 12:26:16;;;;;;;7.15;3.35;;;38.90;59.50;;;;;;5037311;28;20020;-84
2022/09/05 12:28:58;;;;;;;5.38;3.25;;;37.90;60.10;;;;;;5014634;28;20135;-84
2022/09/05 12:31:37;;;;;;;5.53;3.40;;;38.10;60.10;;;;;;5037843;28;20033;-85
2022/09/05 12:34:08;;;;;;;9.38;3.70;;;37.80;60.30;;;;;;5035903;28;20048;-84
2022/09/05 12:36:47;;;;;;;4.20;3.28;;;37.90;59.90;;;;;;5037329;28;20109;-82
2022/09/05 12:39:28;;;;;;;6.00;3.13;;;38.50;59.60;;;;;;5036889;28;20028;-82
2022/09/05 12:42:03;;;;;;;5.25;3.00;;;39.50;58.90;;;;;;5037501;28;20022;-82
2022/09/05 12:44:44;;;;;;;3.72;3.03;;;38.80;58.50;;;;;;5037303;28;20034;-83
2022/09/05 12:47:17;;;;;;;4.53;3.33;;;37.90;59.40;;;;;;5037044;28;20049;-83
2022/09/05 12:50:05;;;;;;;5.30;3.83;;;37.10;60.30;;;;;;5036425;28;20018;-83
2022/09/05 12:52:32;;;;;;;4.22;3.47;;;36.80;60.70;;;;;;5034863;28;20048;-82
2022/09/05 12:55:16;;;;;;;5.53;3.10;;;36.00;60.80;;;;;;5034632;28;20037;-83
2022/09/05 12:57:43;;;;;;;6.25;3.17;;;35.30;62.40;;;;;;5034687;28;20025;-81
2022/09/05 13:00:15;;;;;;;5.82;3.42;;;35.50;62.50;;;;;;5034651;28;20085;-82
2022/09/05 13:02:45;;;;;;;7.00;4.07;;;35.20;62.70;;;;;;5035275;28;20034;-83
2022/09/05 13:05:18;;;;;;;3.63;3.25;;;34.50;63.30;;;;;;5035660;28;20030;-82
2022/09/05 13:08:10;;;;;;;8.95;5.47;;;33.70;64.20;;;;;;5036097;28;20064;-82
2022/09/05 13:10:40;;;;;;;5.97;4.25;;;33.20;64.90;;;;;;5035663;28;20045;-83
2022/09/05 13:13:36;;;;;;;7.90;3.67;;;33.70;65.00;;;;;;5034707;28;20037;-82
2022/09/05 13:16:07;;;;;;;4.30;3.10;;;34.90;64.00;;;;;;5018242;28;20037;-85
2022/09/05 13:18:41;;;;;;;5.28;2.90;;;35.50;62.80;;;;;;5033383;28;20026;-83
2022/09/05 13:21:22;;;;;;;3.65;3.00;;;35.30;62.60;;;;;;5034850;28;20049;-83
2022/09/05 13:24:04;;;;;;;3.78;3.08;;;35.10;62.60;;;;;;5025570;28;20029;-83
2022/09/05 13:26:58;;;;;;;12.77;3.10;;;35.60;62.40;;;;;;5025757;28;20037;-84
2022/09/05 13:29:32;;;;;;;3.58;2.70;;;36.30;61.70;;;;;;5019507;28;20172;-84
2022/09/05 13:31:59;;;;;;;5.05;2.80;;;37.60;60.40;;;;;;5027303;28;20371;-85
2022/09/05 13:34:30;;;;;;;3.85;2.88;;;39.30;59.00;;;;;;5024385;28;20076;-84
2022/09/05 13:37:02;;;;;;;5.13;2.88;;;40.10;57.50;;;;;;5024484;28;20470;-85
2022/09/05 13:39:51;;;;;;;4.43;3.13;;;39.40;58.00;;;;;;5024828;28;20060;-84
2022/09/05 13:42:25;;;;;;;3.97;3.00;;;39.50;57.90;;;;;;5027436;28;20034;-84
2022/09/05 13:44:57;;;;;;;4.45;2.78;;;40.00;57.20;;;;;;5027569;28;20081;-84
2022/09/05 13:48:00;;;;;;;7.88;3.10;;;40.00;56.90;;;;;;5031285;28;20086;-85
2022/09/05 13:50:31;;;;;;;3.78;2.40;;;40.10;56.90;;;;;;5024665;28;20026;-83
2022/09/05 13:53:31;;;;;;;3.85;2.17;;;40.20;56.20;;;;;;5023462;28;20046;-84
2022/09/05 13:56:21;;;;;;;5.45;2.75;;;40.40;55.90;;;;;;5031659;28;20160;-84
2022/09/05 13:58:52;;;;;;;2.58;2.38;;;40.40;56.10;;;;;;5029273;28;20038;-85
2022/09/05 14:01:51;;;;;;;2.65;2.42;;;40.00;56.40;;;;;;5012206;28;20107;-84
2022/09/05 14:04:54;;;;;;;3.30;2.67;;;39.70;56.60;;;;;;5031794;28;20030;-83
2022/09/05 14:07:52;;;;;;;5.47;2.38;;;39.50;56.50;;;;;;5029155;28;20061;-84
2022/09/05 14:10:32;;;;;;;3.03;2.42;;;39.50;56.40;;;;;;5033649;28;20097;-83
2022/09/05 14:13:04;;;;;;;4.80;2.10;;;40.10;55.80;;;;;;5030061;28;20034;-84
2022/09/05 14:15:47;;;;;;;8.48;2.53;;;40.20;55.50;;;;;;5026060;28;20025;-85
2022/09/05 14:18:25;;;;;;;6.13;3.10;;;39.70;55.30;;;;;;5032677;28;20107;-84
2022/09/05 14:21:15;;;;;;;4.85;2.83;;;39.00;55.80;;;;;;5026673;28;20405;-84
2022/09/05 14:23:52;;;;;;;4.43;2.70;;;38.30;56.50;;;;;;5026476;28;20056;-85
2022/09/05 14:26:42;;;;;;;5.47;2.63;;;37.40;56.90;;;;;;5025887;28;20494;-85
2022/09/05 14:29:56;;;;;;;4.70;2.35;;;36.10;58.50;;;;;;5025231;28;20093;-84
2022/09/05 14:32:21;;;;;;;4.15;2.50;;;34.60;60.20;;;;;;4964834;29;20066;-84
2022/09/05 14:35:17;;;;;;;3.50;2.42;;;33.70;62.00;;;;;;5028754;22;20112;-82
2022/09/05 14:38:07;;;;;;;6.32;2.67;;;32.90;63.20;;;;;;5061488;28;20048;-81
2022/09/05 14:41:11;;;;;;;5.18;2.60;;;32.00;64.70;;;;;;5078503;28;20100;-82
2022/09/05 14:44:11;;;;;;;6.10;3.23;;;31.50;65.80;;;;;;5053353;28;20053;-82
2022/09/05 14:46:46;;;;;;;8.85;3.00;;;30.80;66.70;;;;;;5049111;28;20425;-79
2022/09/05 14:49:51;;;;;;;6.47;3.03;;;30.10;68.00;;;;;;5044703;28;20067;-84
2022/09/05 14:52:22;;;;;;;6.90;3.13;;;29.70;68.90;;;;;;5049308;28;20034;-82
2022/09/05 14:54:52;;;;;;;10.27;3.80;;;29.20;69.60;;;;;;5022622;28;20084;-81
2022/09/05 14:57:23;;;;;;;4.05;3.03;;;28.90;70.00;;;;;;5040406;28;20018;-82
2022/09/05 14:59:57;;;;;;;4.60;2.65;;;28.60;70.00;;;;;;5040494;28;20029;-80
2022/09/05 15:02:38;;;;;;;4.35;2.40;;;28.30;71.30;;;;;;5041157;28;20045;-80
2022/09/05 15:05:11;;;;;;;6.85;3.00;;;28.10;71.70;;;;;;5044626;28;20064;-82
2022/09/05 15:08:04;;;;;;;4.93;2.90;;;28.10;72.20;;;;;;5028045;28;20033;-80
2022/09/05 15:10:34;;;;;;;8.13;2.80;;;28.00;73.00;;;;;;5026488;28;20576;-81
2022/09/05 15:13:09;;;;;;;3.85;2.70;;;27.90;73.40;;;;;;5042018;28;20056;-81
2022/09/05 15:15:45;;;;;;;7.90;3.65;;;27.70;73.60;;;;;;5040396;28;20025;-82
2022/09/05 15:18:24;;;;;;;4.38;3.30;;;27.60;73.90;;;;;;5041629;28;20037;-82
2022/09/05 15:20:56;;;;;;;6.55;2.90;;;27.50;74.00;;;;;;5022688;28;20029;-82
2022/09/05 15:23:21;;;;;;;8.70;3.05;;;27.40;74.40;;;;;;5040833;28;20033;-83
2022/09/05 15:25:56;;;;;;;6.50;3.10;;;27.30;74.90;;;;;;5039798;28;20022;-82
2022/09/05 15:28:40;;;;;;;5.18;3.03;;;27.30;75.00;;;;;;5022351;28;20413;-83
2022/09/05 15:31:24;;;;;;;3.08;2.58;;;27.10;75.40;;;;;;5041354;28;20084;-82
2022/09/05 15:33:51;;;;;;;5.95;3.28;;;27.10;75.70;;;;;;5022005;28;20128;-83
2022/09/05 15:36:35;;;;;;;3.83;3.20;;;27.00;75.50;;;;;;5044412;28;20121;-81
2022/09/05 15:39:21;;;;;;;3.65;2.75;;;26.90;75.60;;;;;;5047661;28;20025;-84
2022/09/05 15:41:47;;;;;;;5.55;2.70;;;27.00;76.40;;;;;;5039407;28;20109;-83
2022/09/05 15:44:19;;;;;;;6.30;3.13;;;26.90;76.30;;;;;;5020283;28;20119;-83
2022/09/05 15:46:58;;;;;;;8.10;3.08;;;26.80;76.40;;;;;;5022042;28;20029;-81
2022/09/05 15:49:47;;;;;;;5.53;2.70;;;26.90;76.70;;;;;;5042325;28;20029;-82
2022/09/05 15:52:16;;;;;;;5.18;3.10;;;26.80;77.00;;;;;;5021090;28;20037;-82
2022/09/05 15:54:52;;;;;;;9.45;3.38;;;26.70;77.60;;;;;;5038408;28;20033;-81
2022/09/05 15:57:28;;;;;;;7.50;3.88;;;26.60;77.70;;;;;;5042092;28;20446;-82
2022/09/05 16:00:03;;;;;;;5.75;3.53;;;26.60;77.90;;;;;;5042701;28;20030;-80
2022/09/05 16:02:37;;;;;;;6.22;3.70;;;26.50;78.50;;;;;;5045835;28;20037;-81
2022/09/05 16:05:07;;;;;;;8.57;3.67;;;26.40;78.50;;;;;;5045091;28;20531;-82
2022/09/05 16:07:40;;;;;;;9.68;3.42;;;26.40;78.60;;;;;;5022527;28;20029;-82
2022/09/05 16:10:12;;;;;;;10.23;3.75;;;26.40;79.20;;;;;;5040888;28;20021;-81
2022/09/05 16:12:44;;;;;;;5.65;3.03;;;26.30;79.30;;;;;;5043797;28;20026;-82
2022/09/05 16:15:15;;;;;;;6.32;3.28;;;26.30;79.80;;;;;;5038945;28;20079;-79
2022/09/05 16:17:49;;;;;;;6.35;3.08;;;26.20;80.30;;;;;;5038825;28;20025;-83
2022/09/05 16:20:25;;;;;;;7.35;2.97;;;26.10;80.90;;;;;;5038540;28;20029;-82
2022/09/05 16:23:15;;;;;;;7.45;2.83;;;25.90;81.10;;;;;;5022352;28;20556;-81
2022/09/05 16:25:46;;;;;;;3.63;2.80;;;25.80;81.30;;;;;;5025852;28;20470;-82
2022/09/05 16:28:17;;;;;;;8.02;2.90;;;25.80;81.20;;;;;;5039566;28;20456;-82
2022/09/05 16:30:42;;;;;;;5.45;3.40;;;25.70;81.60;;;;;;5021575;28;20430;-83
2022/09/05 16:33:24;;;;;;;5.65;2.80;;;25.70;82.10;;;;;;5023569;28;20032;-81
2022/09/05 16:36:14;;;;;;;4.05;3.08;;;25.60;82.50;;;;;;5042483;28;20029;-84
2022/09/05 16:39:09;;;;;;;5.28;3.13;;;25.50;82.50;;;;;;5024279;28;20494;-81
2022/09/05 16:41:50;;;;;;;7.70;4.00;;;25.50;83.00;;;;;;5042958;28;20026;-82
2022/09/05 16:44:37;;;;;;;13.52;3.60;;;25.50;83.40;;;;;;5043086;28;20084;-83
2022/09/05 16:47:12;;;;;;;8.80;3.42;;;25.50;82.90;;;;;;5043650;28;20033;-81
2022/09/05 16:49:55;;;;;;;4.82;3.03;;;25.50;83.50;;;;;;5022718;28;20084;-82
2022/09/05 16:52:47;;;;;;;9.35;3.22;;;25.50;83.80;;;;;;5008730;28;20021;-82
2022/09/05 16:55:22;;;;;;;9.82;2.92;;;25.40;83.80;;;;;;5028252;28;20037;-81
2022/09/05 16:58:09;;;;;;;6.20;2.70;;;25.30;84.00;;;;;;5052322;28;20039;-82
2022/09/05 17:01:03;;;;;;;6.15;3.65;;;25.20;83.90;;;;;;5054086;28;20026;-81
2022/09/05 17:04:06;;;;;;;4.00;2.97;;;25.20;84.20;;;;;;5023319;28;20523;-81
2022/09/05 17:06:49;;;;;;;6.65;3.42;;;25.10;85.20;;;;;;5041376;28;20030;-82
2022/09/05 17:09:39;;;;;;;5.78;2.90;;;25.00;85.30;;;;;;5040575;28;20057;-82
2022/09/05 17:12:27;;;;;;;9.13;2.80;;;24.90;86.10;;;;;;5044099;28;20036;-81
2022/09/05 17:14:58;;;;;;;6.32;2.72;;;24.80;86.50;;;;;;5043079;28;20034;-83
2022/09/05 17:17:48;;;;;;;6.43;3.40;;;24.80;87.40;;;;;;5040057;28;20087;-81
2022/09/05 17:20:19;;;;;;;6.22;3.05;;;24.60;87.60;;;;;;5007362;28;20040;-82
2022/09/05 17:22:53;;;;;;;8.10;2.90;;;24.60;87.80;;;;;;5041820;28;20060;-85
2022/09/05 17:25:26;;;;;;;5.07;3.07;;;24.50;88.00;;;;;;5042489;28;20046;-83
2022/09/05 17:27:53;;;;;;;4.72;2.97;;;24.50;88.40;;;;;;5043669;28;20264;-84
2022/09/05 17:30:58;;;;;;;6.05;3.00;;;24.40;88.80;;;;;;5039662;28;20044;-82
2022/09/05 17:33:32;;;;;;;7.10;3.23;;;24.30;89.20;;;;;;5021903;28;20061;-84
2022/09/05 17:36:24;;;;;;;6.60;3.25;;;24.20;89.70;;;;;;5046403;28;20033;-83
2022/09/05 17:39:37;;;;;;;6.25;3.50;;;24.20;90.10;;;;;;5049657;28;20453;-83
2022/09/05 17:42:14;;;;;;;9.73;3.40;;;24.10;90.50;;;;;;4949137;29;20040;-83
2022/09/05 17:44:53;;;;;;;5.75;3.40;;;24.10;90.70;;;;;;5037218;28;20045;-80
2022/09/05 17:47:27;;;;;;;5.72;3.15;;;24.00;90.90;;;;;;5041198;28;20041;-83
2022/09/05 17:50:18;;;;;;;11.47;3.37;;;23.90;91.20;;;;;;5023908;28;20063;-84
2022/09/05 17:53:02;;;;;;;9.25;3.60;;;23.90;91.40;;;;;;5057194;28;20037;-81
2022/09/05 17:55:37;;;;;;;10.25;4.00;;;23.80;91.50;;;;;;5060170;28;20038;-80
2022/09/05 17:58:25;;;;;;;;;;;23.80;91.70;;;;;;5043181;28;20045;-82
2022/09/05 18:00:51;;;;;;;22.15;7.97;;;23.70;91.80;;;;;;5053707;28;19913;-85
2022/09/05 18:03:43;;;;;;;10.30;4.18;;;23.70;92.00;;;;;;5049343;28;20079;-84
2022/09/05 18:06:28;;;;;;;14.05;4.63;;;23.60;92.40;;;;;;5047015;28;20034;-83
2022/09/05 18:08:55;;;;;;;11.38;4.18;;;23.50;92.60;;;;;;5055192;28;20014;-84
2022/09/05 18:11:20;;;;;;;10.80;4.45;;;23.40;92.80;;;;;;5054464;28;20052;-83
2022/09/05 18:14:13;;;;;;;10.55;4.60;;;23.30;93.10;;;;;;5037758;28;20033;-80